sensor_id;sensor_type;location;lat;lon;timestamp;pressure;altitude;pressure_sealevel;temperature;humidity
65376;BME280;51976;47.332;9.404;2023-05-14T00:01:11;92554.19;;;9.52;82.60
65376;BME280;51976;47.332;9.404;2023-05-14T00:03:36;92574.69;;;9.77;82.24
65376;BME280;51976;47.332;9.404;2023-05-14T00:06:04;92576.38;;;9.68;82.58
65376;BME280;51976;47.332;9.404;2023-05-14T00:08:29;92549.34;;;9.49;82.63
65376;BME280;51976;47.332;9.404;2023-05-14T00:10:54;92574.78;;;9.62;82.74
65376;BME280;51976;47.332;9.404;2023-05-14T00:13:20;92577.13;;;9.73;82.49
65376;BME280;51976;47.332;9.404;2023-05-14T00:15:45;92576.00;;;9.79;82.09
65376;BME280;51976;47.332;9.404;2023-05-14T00:18:11;92568.25;;;9.73;82.26
65376;BME280;51976;47.332;9.404;2023-05-14T00:20:36;92568.03;;;9.64;82.45
65376;BME280;51976;47.332;9.404;2023-05-14T00:23:02;92567.94;;;9.79;82.15
65376;BME280;51976;47.332;9.404;2023-05-14T00:25:27;92560.94;;;9.78;81.94
65376;BME280;51976;47.332;9.404;2023-05-14T00:27:52;92485.78;;;9.29;82.23
65376;BME280;51976;47.332;9.404;2023-05-14T00:30:18;92561.50;;;9.75;82.15
65376;BME280;51976;47.332;9.404;2023-05-14T00:32:44;92540.34;;;9.64;82.40
65376;BME280;51976;47.332;9.404;2023-05-14T00:35:09;92485.38;;;9.41;82.15
65376;BME280;51976;47.332;9.404;2023-05-14T00:37:35;92550.94;;;9.84;81.97
65376;BME280;51976;47.332;9.404;2023-05-14T00:40:02;92525.09;;;9.83;81.56
65376;BME280;51976;47.332;9.404;2023-05-14T00:42:27;92556.72;;;9.96;81.41
65376;BME280;51976;47.332;9.404;2023-05-14T00:44:53;92501.91;;;9.58;81.27
65376;BME280;51976;47.332;9.404;2023-05-14T00:47:18;92543.94;;;9.83;81.78
65376;BME280;51976;47.332;9.404;2023-05-14T00:49:44;92548.16;;;9.89;81.78
65376;BME280;51976;47.332;9.404;2023-05-14T00:52:10;92556.19;;;9.94;81.55
65376;BME280;51976;47.332;9.404;2023-05-14T00:54:35;92555.50;;;9.83;81.82
65376;BME280;51976;47.332;9.404;2023-05-14T00:57:02;92551.25;;;9.77;82.07
65376;BME280;51976;47.332;9.404;2023-05-14T00:59:28;92549.66;;;9.76;82.18
65376;BME280;51976;47.332;9.404;2023-05-14T01:01:53;92540.97;;;9.56;82.91
65376;BME280;51976;47.332;9.404;2023-05-14T01:04:19;92541.97;;;9.60;83.00
65376;BME280;51976;47.332;9.404;2023-05-14T01:07:08;92547.59;;;9.63;83.07
65376;BME280;51976;47.332;9.404;2023-05-14T01:09:46;92501.81;;;9.39;82.88
65376;BME280;51976;47.332;9.404;2023-05-14T01:12:26;92553.50;;;9.65;82.94
65376;BME280;51976;47.332;9.404;2023-05-14T01:15:10;92551.78;;;9.50;83.52
65376;BME280;51976;47.332;9.404;2023-05-14T01:17:45;92549.63;;;9.47;83.72
65376;BME280;51976;47.332;9.404;2023-05-14T01:20:13;92511.53;;;9.35;83.36
65376;BME280;51976;47.332;9.404;2023-05-14T01:22:38;92550.34;;;9.58;83.21
65376;BME280;51976;47.332;9.404;2023-05-14T01:25:05;92544.38;;;9.61;83.10
65376;BME280;51976;47.332;9.404;2023-05-14T01:27:46;92536.28;;;9.66;82.95
65376;BME280;51976;47.332;9.404;2023-05-14T01:30:28;92543.38;;;9.57;83.07
65376;BME280;51976;47.332;9.404;2023-05-14T01:32:57;92539.81;;;9.62;83.12
65376;BME280;51976;47.332;9.404;2023-05-14T01:35:27;92535.78;;;9.59;83.11
65376;BME280;51976;47.332;9.404;2023-05-14T01:37:59;92540.56;;;9.67;82.99
65376;BME280;51976;47.332;9.404;2023-05-14T01:40:25;92521.38;;;9.50;82.92
65376;BME280;51976;47.332;9.404;2023-05-14T01:42:52;92520.56;;;9.49;83.06
65376;BME280;51976;47.332;9.404;2023-05-14T01:45:20;92538.13;;;9.71;82.68
65376;BME280;51976;47.332;9.404;2023-05-14T01:47:46;92535.47;;;9.66;82.90
65376;BME280;51976;47.332;9.404;2023-05-14T01:50:12;92522.34;;;9.59;82.51
65376;BME280;51976;47.332;9.404;2023-05-14T01:52:37;92542.19;;;9.68;82.69
65376;BME280;51976;47.332;9.404;2023-05-14T01:55:03;92502.81;;;9.48;82.51
65376;BME280;51976;47.332;9.404;2023-05-14T01:57:29;92536.00;;;9.68;82.54
65376;BME280;51976;47.332;9.404;2023-05-14T01:59:54;92531.47;;;9.63;82.73
65376;BME280;51976;47.332;9.404;2023-05-14T02:02:20;92534.94;;;9.64;82.58
65376;BME280;51976;47.332;9.404;2023-05-14T02:04:45;92530.94;;;9.61;82.46
65376;BME280;51976;47.332;9.404;2023-05-14T02:07:11;92506.78;;;9.56;82.27
65376;BME280;51976;47.332;9.404;2023-05-14T02:09:36;92505.63;;;9.62;81.94
65376;BME280;51976;47.332;9.404;2023-05-14T02:12:02;92531.94;;;9.70;81.99
65376;BME280;51976;47.332;9.404;2023-05-14T02:14:27;92526.50;;;9.75;81.69
65376;BME280;51976;47.332;9.404;2023-05-14T02:16:53;92523.53;;;9.77;81.62
65376;BME280;51976;47.332;9.404;2023-05-14T02:19:18;92465.16;;;9.48;81.45
65376;BME280;51976;47.332;9.404;2023-05-14T02:21:43;92469.59;;;9.58;81.14
65376;BME280;51976;47.332;9.404;2023-05-14T02:24:09;92516.94;;;9.88;81.21
65376;BME280;51976;47.332;9.404;2023-05-14T02:26:34;92512.91;;;9.85;81.06
65376;BME280;51976;47.332;9.404;2023-05-14T02:28:59;92507.53;;;9.85;81.21
65376;BME280;51976;47.332;9.404;2023-05-14T02:31:25;92472.38;;;9.53;81.57
65376;BME280;51976;47.332;9.404;2023-05-14T02:33:50;92515.22;;;9.73;81.79
65376;BME280;51976;47.332;9.404;2023-05-14T02:36:16;92456.13;;;9.34;81.84
65376;BME280;51976;47.332;9.404;2023-05-14T02:38:41;92463.03;;;9.45;81.84
65376;BME280;51976;47.332;9.404;2023-05-14T02:41:06;92507.63;;;9.80;81.63
65376;BME280;51976;47.332;9.404;2023-05-14T02:43:32;92492.38;;;9.71;81.49
65376;BME280;51976;47.332;9.404;2023-05-14T02:45:57;92457.88;;;9.49;81.79
65376;BME280;51976;47.332;9.404;2023-05-14T02:48:22;92502.22;;;9.80;81.50
65376;BME280;51976;47.332;9.404;2023-05-14T02:50:49;92481.34;;;9.67;81.37
65376;BME280;51976;47.332;9.404;2023-05-14T02:53:16;92499.69;;;9.65;81.54
65376;BME280;51976;47.332;9.404;2023-05-14T02:55:41;92495.84;;;9.71;81.47
65376;BME280;51976;47.332;9.404;2023-05-14T02:58:06;92475.19;;;9.67;81.08
65376;BME280;51976;47.332;9.404;2023-05-14T03:00:32;92496.84;;;9.80;80.94
65376;BME280;51976;47.332;9.404;2023-05-14T03:02:57;92493.69;;;9.73;81.22
65376;BME280;51976;47.332;9.404;2023-05-14T03:05:23;92490.53;;;9.66;81.13
65376;BME280;51976;47.332;9.404;2023-05-14T03:07:50;92469.19;;;9.75;80.77
65376;BME280;51976;47.332;9.404;2023-05-14T03:10:15;92483.09;;;9.82;80.51
65376;BME280;51976;47.332;9.404;2023-05-14T03:12:41;92499.66;;;9.94;80.35
65376;BME280;51976;47.332;9.404;2023-05-14T03:15:07;92493.41;;;9.99;80.29
65376;BME280;51976;47.332;9.404;2023-05-14T03:17:33;92477.13;;;9.85;80.03
65376;BME280;51976;47.332;9.404;2023-05-14T03:19:58;92421.09;;;9.39;80.44
65376;BME280;51976;47.332;9.404;2023-05-14T03:22:23;92468.47;;;9.64;80.67
65376;BME280;51976;47.332;9.404;2023-05-14T03:24:49;92497.38;;;9.82;80.75
65376;BME280;51976;47.332;9.404;2023-05-14T03:27:14;92494.44;;;9.79;80.97
65376;BME280;51976;47.332;9.404;2023-05-14T03:29:40;92494.16;;;9.80;80.96
65376;BME280;51976;47.332;9.404;2023-05-14T03:32:05;92477.03;;;9.71;80.87
65376;BME280;51976;47.332;9.404;2023-05-14T03:34:31;92466.72;;;9.55;81.38
65376;BME280;51976;47.332;9.404;2023-05-14T03:36:56;92492.94;;;9.68;81.60
65376;BME280;51976;47.332;9.404;2023-05-14T03:39:22;92465.00;;;9.35;82.54
65376;BME280;51976;47.332;9.404;2023-05-14T03:41:47;92490.69;;;9.51;82.66
65376;BME280;51976;47.332;9.404;2023-05-14T03:44:13;92465.44;;;9.47;82.22
65376;BME280;51976;47.332;9.404;2023-05-14T03:46:39;92475.16;;;9.43;82.24
65376;BME280;51976;47.332;9.404;2023-05-14T03:49:05;92452.13;;;9.32;82.25
65376;BME280;51976;47.332;9.404;2023-05-14T03:51:31;92487.72;;;9.53;82.30
65376;BME280;51976;47.332;9.404;2023-05-14T03:53:56;92479.13;;;9.50;82.39
65376;BME280;51976;47.332;9.404;2023-05-14T03:56:23;92486.91;;;9.52;82.19
65376;BME280;51976;47.332;9.404;2023-05-14T03:58:48;92488.50;;;9.53;82.40
65376;BME280;51976;47.332;9.404;2023-05-14T04:01:13;92478.38;;;9.45;82.65
65376;BME280;51976;47.332;9.404;2023-05-14T04:03:39;92479.69;;;9.47;82.55
65376;BME280;51976;47.332;9.404;2023-05-14T04:06:04;92464.44;;;9.38;82.79
65376;BME280;51976;47.332;9.404;2023-05-14T04:08:30;92471.75;;;9.32;82.76
65376;BME280;51976;47.332;9.404;2023-05-14T04:10:55;92464.72;;;9.36;82.65
65376;BME280;51976;47.332;9.404;2023-05-14T04:13:21;92472.19;;;9.44;82.48
65376;BME280;51976;47.332;9.404;2023-05-14T04:15:46;92485.31;;;9.51;82.72
65376;BME280;51976;47.332;9.404;2023-05-14T04:18:11;92481.56;;;9.47;82.70
65376;BME280;51976;47.332;9.404;2023-05-14T04:20:37;92481.63;;;9.42;83.02
65376;BME280;51976;47.332;9.404;2023-05-14T04:23:02;92478.41;;;9.40;83.09
65376;BME280;51976;47.332;9.404;2023-05-14T04:25:28;92483.78;;;9.40;83.23
65376;BME280;51976;47.332;9.404;2023-05-14T04:27:53;92489.38;;;9.48;82.51
65376;BME280;51976;47.332;9.404;2023-05-14T04:30:19;92476.09;;;9.28;83.66
65376;BME280;51976;47.332;9.404;2023-05-14T04:32:45;92486.47;;;9.40;83.39
65376;BME280;51976;47.332;9.404;2023-05-14T04:35:10;92491.97;;;9.30;83.97
65376;BME280;51976;47.332;9.404;2023-05-14T04:37:37;92490.63;;;9.27;84.16
65376;BME280;51976;47.332;9.404;2023-05-14T04:40:05;92486.75;;;9.09;84.71
65376;BME280;51976;47.332;9.404;2023-05-14T04:42:32;92485.03;;;9.24;84.34
65376;BME280;51976;47.332;9.404;2023-05-14T04:44:58;92484.19;;;9.28;84.17
65376;BME280;51976;47.332;9.404;2023-05-14T04:47:23;92476.66;;;9.25;83.84
65376;BME280;51976;47.332;9.404;2023-05-14T04:49:49;92456.28;;;9.19;83.70
65376;BME280;51976;47.332;9.404;2023-05-14T04:52:14;92488.81;;;9.52;83.37
65376;BME280;51976;47.332;9.404;2023-05-14T04:54:40;92484.47;;;9.56;82.85
65376;BME280;51976;47.332;9.404;2023-05-14T04:57:05;92482.84;;;9.55;82.99
65376;BME280;51976;47.332;9.404;2023-05-14T04:59:31;92486.06;;;9.57;82.54
65376;BME280;51976;47.332;9.404;2023-05-14T05:01:57;92496.13;;;9.46;82.78
65376;BME280;51976;47.332;9.404;2023-05-14T05:04:22;92478.53;;;9.30;82.97
65376;BME280;51976;47.332;9.404;2023-05-14T05:06:49;92458.66;;;9.26;83.03
65376;BME280;51976;47.332;9.404;2023-05-14T05:09:15;92491.25;;;9.48;82.77
65376;BME280;51976;47.332;9.404;2023-05-14T05:11:41;92437.19;;;9.21;82.65
65376;BME280;51976;47.332;9.404;2023-05-14T05:14:06;92475.44;;;9.41;82.27
65376;BME280;51976;47.332;9.404;2023-05-14T05:16:32;92443.75;;;9.33;82.09
65376;BME280;51976;47.332;9.404;2023-05-14T05:18:57;92492.03;;;9.77;81.68
65376;BME280;51976;47.332;9.404;2023-05-14T05:21:22;92476.97;;;9.76;81.35
65376;BME280;51976;47.332;9.404;2023-05-14T05:23:48;92491.28;;;9.96;81.03
65376;BME280;51976;47.332;9.404;2023-05-14T05:26:13;92460.88;;;9.71;80.96
65376;BME280;51976;47.332;9.404;2023-05-14T05:28:39;92489.44;;;9.91;80.72
65376;BME280;51976;47.332;9.404;2023-05-14T05:31:04;92496.72;;;9.91;80.87
65376;BME280;51976;47.332;9.404;2023-05-14T05:33:29;92499.53;;;10.04;80.34
65376;BME280;51976;47.332;9.404;2023-05-14T05:35:55;92494.91;;;10.10;80.09
65376;BME280;51976;47.332;9.404;2023-05-14T05:38:20;92439.56;;;9.75;79.83
65376;BME280;51976;47.332;9.404;2023-05-14T05:40:52;92495.75;;;10.05;80.11
65376;BME280;51976;47.332;9.404;2023-05-14T05:43:17;92464.59;;;9.75;80.63
65376;BME280;51976;47.332;9.404;2023-05-14T05:45:43;92471.00;;;9.56;81.45
65376;BME280;51976;47.332;9.404;2023-05-14T05:48:10;92498.38;;;9.87;81.09
65376;BME280;51976;47.332;9.404;2023-05-14T05:50:35;92468.38;;;9.74;81.17
65376;BME280;51976;47.332;9.404;2023-05-14T05:53:01;92445.47;;;9.53;81.23
65376;BME280;51976;47.332;9.404;2023-05-14T05:55:27;92500.69;;;9.98;80.93
65376;BME280;51976;47.332;9.404;2023-05-14T05:57:53;92493.75;;;9.92;81.33
65376;BME280;51976;47.332;9.404;2023-05-14T06:00:18;92495.81;;;9.76;82.29
65376;BME280;51976;47.332;9.404;2023-05-14T06:02:45;92498.31;;;9.92;82.03
65376;BME280;51976;47.332;9.404;2023-05-14T06:05:10;92494.44;;;10.03;81.67
65376;BME280;51976;47.332;9.404;2023-05-14T06:07:36;92477.78;;;10.01;80.96
65376;BME280;51976;47.332;9.404;2023-05-14T06:10:02;92462.88;;;9.84;80.99
65376;BME280;51976;47.332;9.404;2023-05-14T06:12:27;92493.75;;;9.92;80.98
65376;BME280;51976;47.332;9.404;2023-05-14T06:14:54;92490.38;;;9.81;81.93
65376;BME280;51976;47.332;9.404;2023-05-14T06:17:20;92490.94;;;9.78;82.68
65376;BME280;51976;47.332;9.404;2023-05-14T06:19:46;92468.19;;;9.66;82.67
65376;BME280;51976;47.332;9.404;2023-05-14T06:22:11;92498.75;;;9.80;82.74
65376;BME280;51976;47.332;9.404;2023-05-14T06:24:36;92488.53;;;9.77;82.82
65376;BME280;51976;47.332;9.404;2023-05-14T06:27:02;92433.66;;;9.49;83.00
65376;BME280;51976;47.332;9.404;2023-05-14T06:29:27;92492.72;;;9.88;82.92
65376;BME280;51976;47.332;9.404;2023-05-14T06:31:53;92487.84;;;9.90;82.42
65376;BME280;51976;47.332;9.404;2023-05-14T06:34:18;92480.22;;;9.73;83.01
65376;BME280;51976;47.332;9.404;2023-05-14T06:36:43;92488.34;;;9.92;82.98
65376;BME280;51976;47.332;9.404;2023-05-14T06:39:09;92489.38;;;9.96;82.94
65376;BME280;51976;47.332;9.404;2023-05-14T06:41:34;92480.25;;;10.16;82.01
65376;BME280;51976;47.332;9.404;2023-05-14T06:44:00;92489.59;;;10.47;81.22
65376;BME280;51976;47.332;9.404;2023-05-14T06:46:25;92458.78;;;10.35;80.58
65376;BME280;51976;47.332;9.404;2023-05-14T06:48:50;92487.75;;;10.43;80.71
65376;BME280;51976;47.332;9.404;2023-05-14T06:51:16;92486.97;;;10.42;79.76
65376;BME280;51976;47.332;9.404;2023-05-14T06:53:41;92477.66;;;10.35;79.39
65376;BME280;51976;47.332;9.404;2023-05-14T06:56:06;92492.09;;;10.63;78.94
65376;BME280;51976;47.332;9.404;2023-05-14T06:58:32;92476.91;;;10.67;78.70
65376;BME280;51976;47.332;9.404;2023-05-14T07:00:57;92482.56;;;10.89;78.28
65376;BME280;51976;47.332;9.404;2023-05-14T07:03:23;92486.78;;;10.76;78.15
65376;BME280;51976;47.332;9.404;2023-05-14T07:05:48;92483.78;;;10.78;77.90
65376;BME280;51976;47.332;9.404;2023-05-14T07:08:14;92477.22;;;10.84;76.98
65376;BME280;51976;47.332;9.404;2023-05-14T07:10:39;92472.41;;;10.81;76.83
65376;BME280;51976;47.332;9.404;2023-05-14T07:13:05;92474.25;;;10.85;76.86
65376;BME280;51976;47.332;9.404;2023-05-14T07:15:30;92477.22;;;10.84;76.92
65376;BME280;51976;47.332;9.404;2023-05-14T07:17:56;92482.75;;;10.74;77.56
65376;BME280;51976;47.332;9.404;2023-05-14T07:20:21;92479.13;;;10.65;78.19
65376;BME280;51976;47.332;9.404;2023-05-14T07:22:48;92473.94;;;10.68;77.69
65376;BME280;51976;47.332;9.404;2023-05-14T07:25:14;92476.22;;;10.61;78.01
65376;BME280;51976;47.332;9.404;2023-05-14T07:27:39;92479.72;;;10.62;77.99
65376;BME280;51976;47.332;9.404;2023-05-14T07:30:06;92476.72;;;10.63;78.33
65376;BME280;51976;47.332;9.404;2023-05-14T07:32:31;92475.31;;;10.47;79.06
65376;BME280;51976;47.332;9.404;2023-05-14T07:34:57;92469.00;;;10.38;79.54
65376;BME280;51976;47.332;9.404;2023-05-14T07:37:22;92470.44;;;10.49;79.58
65376;BME280;51976;47.332;9.404;2023-05-14T07:39:50;92466.50;;;10.41;79.79
65376;BME280;51976;47.332;9.404;2023-05-14T07:42:15;92469.41;;;10.26;81.52
65376;BME280;51976;47.332;9.404;2023-05-14T07:44:41;92453.19;;;10.07;82.14
65376;BME280;51976;47.332;9.404;2023-05-14T07:47:06;92470.16;;;10.08;83.41
65376;BME280;51976;47.332;9.404;2023-05-14T07:49:33;92455.09;;;9.83;84.29
65376;BME280;51976;47.332;9.404;2023-05-14T07:51:58;92461.78;;;9.85;84.53
65376;BME280;51976;47.332;9.404;2023-05-14T07:54:23;92471.41;;;9.68;85.67
65376;BME280;51976;47.332;9.404;2023-05-14T07:56:49;92470.84;;;9.71;85.82
65376;BME280;51976;47.332;9.404;2023-05-14T07:59:14;92473.53;;;9.71;85.46
65376;BME280;51976;47.332;9.404;2023-05-14T08:01:40;92478.06;;;9.75;85.74
65376;BME280;51976;47.332;9.404;2023-05-14T08:04:06;92450.75;;;9.58;85.99
65376;BME280;51976;47.332;9.404;2023-05-14T08:06:31;92472.00;;;9.60;86.84
65376;BME280;51976;47.332;9.404;2023-05-14T08:08:57;92482.63;;;9.75;86.76
65376;BME280;51976;47.332;9.404;2023-05-14T08:11:22;92473.13;;;9.82;86.73
65376;BME280;51976;47.332;9.404;2023-05-14T08:13:48;92469.97;;;9.99;85.94
65376;BME280;51976;47.332;9.404;2023-05-14T08:16:13;92469.69;;;10.01;84.98
65376;BME280;51976;47.332;9.404;2023-05-14T08:18:39;92442.00;;;9.95;84.81
65376;BME280;51976;47.332;9.404;2023-05-14T08:21:04;92471.63;;;9.95;84.22
65376;BME280;51976;47.332;9.404;2023-05-14T08:23:30;92454.09;;;9.98;84.04
65376;BME280;51976;47.332;9.404;2023-05-14T08:25:55;92460.75;;;10.05;84.56
65376;BME280;51976;47.332;9.404;2023-05-14T08:28:21;92463.75;;;9.80;85.10
65376;BME280;51976;47.332;9.404;2023-05-14T08:30:46;92431.44;;;9.56;84.72
65376;BME280;51976;47.332;9.404;2023-05-14T08:33:11;92435.66;;;9.62;85.15
65376;BME280;51976;47.332;9.404;2023-05-14T08:35:37;92466.94;;;9.82;85.28
65376;BME280;51976;47.332;9.404;2023-05-14T08:38:02;92458.13;;;9.76;85.28
65376;BME280;51976;47.332;9.404;2023-05-14T08:40:27;92460.53;;;9.78;85.12
65376;BME280;51976;47.332;9.404;2023-05-14T08:42:55;92470.44;;;9.82;85.22
65376;BME280;51976;47.332;9.404;2023-05-14T08:45:23;92458.59;;;9.83;85.14
65376;BME280;51976;47.332;9.404;2023-05-14T08:47:51;92452.88;;;9.61;86.00
65376;BME280;51976;47.332;9.404;2023-05-14T08:50:17;92465.72;;;9.69;85.65
65376;BME280;51976;47.332;9.404;2023-05-14T08:52:44;92449.00;;;9.48;85.92
65376;BME280;51976;47.332;9.404;2023-05-14T08:55:11;92462.56;;;9.62;85.34
65376;BME280;51976;47.332;9.404;2023-05-14T08:57:37;92460.72;;;9.58;86.08
65376;BME280;51976;47.332;9.404;2023-05-14T09:00:03;92458.97;;;9.72;85.75
65376;BME280;51976;47.332;9.404;2023-05-14T09:02:39;92428.00;;;9.50;86.26
65376;BME280;51976;47.332;9.404;2023-05-14T09:05:05;92459.59;;;9.64;86.29
65376;BME280;51976;47.332;9.404;2023-05-14T09:07:32;92461.16;;;9.70;86.08
65376;BME280;51976;47.332;9.404;2023-05-14T09:09:57;92436.88;;;9.75;85.63
65376;BME280;51976;47.332;9.404;2023-05-14T09:12:23;92442.06;;;9.90;82.73
65376;BME280;51976;47.332;9.404;2023-05-14T09:14:49;92447.63;;;9.99;81.24
65376;BME280;51976;47.332;9.404;2023-05-14T09:17:16;92456.09;;;10.11;81.06
65376;BME280;51976;47.332;9.404;2023-05-14T09:19:42;92456.59;;;10.13;79.68
65376;BME280;51976;47.332;9.404;2023-05-14T09:22:10;92449.25;;;10.18;79.11
65376;BME280;51976;47.332;9.404;2023-05-14T09:24:36;92444.13;;;10.22;78.96
65376;BME280;51976;47.332;9.404;2023-05-14T09:27:03;92447.84;;;10.26;77.44
65376;BME280;51976;47.332;9.404;2023-05-14T09:29:29;92445.16;;;10.26;76.75
65376;BME280;51976;47.332;9.404;2023-05-14T09:31:56;92443.84;;;10.24;76.99
65376;BME280;51976;47.332;9.404;2023-05-14T09:34:26;92431.34;;;10.33;77.29
65376;BME280;51976;47.332;9.404;2023-05-14T09:37:01;92439.34;;;10.57;76.92
65376;BME280;51976;47.332;9.404;2023-05-14T09:39:28;92443.34;;;10.59;77.18
65376;BME280;51976;47.332;9.404;2023-05-14T09:41:54;92426.59;;;10.43;78.40
65376;BME280;51976;47.332;9.404;2023-05-14T09:44:22;92439.47;;;10.46;78.44
65376;BME280;51976;47.332;9.404;2023-05-14T09:46:48;92438.25;;;10.58;78.93
65376;BME280;51976;47.332;9.404;2023-05-14T09:49:14;92441.59;;;10.68;78.70
65376;BME280;51976;47.332;9.404;2023-05-14T09:51:40;92439.69;;;10.69;78.10
65376;BME280;51976;47.332;9.404;2023-05-14T09:54:06;92453.31;;;10.40;78.28
65376;BME280;51976;47.332;9.404;2023-05-14T09:56:32;92416.72;;;10.15;79.42
65376;BME280;51976;47.332;9.404;2023-05-14T09:58:58;92440.81;;;10.49;79.06
65376;BME280;51976;47.332;9.404;2023-05-14T10:01:24;92438.91;;;10.68;78.23
65376;BME280;51976;47.332;9.404;2023-05-14T10:03:52;92437.44;;;10.76;77.02
65376;BME280;51976;47.332;9.404;2023-05-14T10:06:21;92440.31;;;10.98;76.25
65376;BME280;51976;47.332;9.404;2023-05-14T10:08:48;92427.63;;;11.17;75.64
65376;BME280;51976;47.332;9.404;2023-05-14T10:11:19;92424.34;;;11.34;75.50
65376;BME280;51976;47.332;9.404;2023-05-14T10:13:55;92430.38;;;11.45;75.93
65376;BME280;51976;47.332;9.404;2023-05-14T10:16:30;92423.75;;;11.51;75.63
65376;BME280;51976;47.332;9.404;2023-05-14T10:19:04;92426.88;;;11.58;75.01
65376;BME280;51976;47.332;9.404;2023-05-14T10:21:34;92417.78;;;11.40;74.97
65376;BME280;51976;47.332;9.404;2023-05-14T10:24:04;92422.66;;;11.38;75.09
65376;BME280;51976;47.332;9.404;2023-05-14T10:26:36;92422.66;;;11.38;74.63
65376;BME280;51976;47.332;9.404;2023-05-14T10:29:04;92430.81;;;11.19;74.52
65376;BME280;51976;47.332;9.404;2023-05-14T10:31:50;92411.13;;;11.19;74.45
65376;BME280;51976;47.332;9.404;2023-05-14T10:34:38;92428.28;;;11.42;74.16
65376;BME280;51976;47.332;9.404;2023-05-14T10:37:07;92420.78;;;11.52;74.02
65376;BME280;51976;47.332;9.404;2023-05-14T10:39:44;92419.00;;;11.62;73.94
65376;BME280;51976;47.332;9.404;2023-05-14T10:42:12;92411.50;;;11.59;73.74
65376;BME280;51976;47.332;9.404;2023-05-14T10:44:45;92415.59;;;11.70;73.61
65376;BME280;51976;47.332;9.404;2023-05-14T10:47:11;92377.06;;;11.50;73.66
65376;BME280;51976;47.332;9.404;2023-05-14T10:49:36;92394.72;;;11.75;73.20
65376;BME280;51976;47.332;9.404;2023-05-14T10:52:02;92405.84;;;11.88;72.70
65376;BME280;51976;47.332;9.404;2023-05-14T10:54:27;92389.91;;;11.72;73.00
65376;BME280;51976;47.332;9.404;2023-05-14T10:56:53;92401.13;;;11.79;72.67
65376;BME280;51976;47.332;9.404;2023-05-14T10:59:26;92366.09;;;11.47;73.06
65376;BME280;51976;47.332;9.404;2023-05-14T11:01:51;92363.25;;;11.11;74.91
65376;BME280;51976;47.332;9.404;2023-05-14T11:04:18;92377.53;;;11.11;74.69
65376;BME280;51976;47.332;9.404;2023-05-14T11:06:44;92383.44;;;11.27;74.86
65376;BME280;51976;47.332;9.404;2023-05-14T11:09:12;92382.09;;;11.43;74.72
65376;BME280;51976;47.332;9.404;2023-05-14T11:11:41;92401.00;;;11.57;74.33
65376;BME280;51976;47.332;9.404;2023-05-14T11:14:07;92402.09;;;11.56;73.97
65376;BME280;51976;47.332;9.404;2023-05-14T11:16:33;92400.13;;;11.75;73.28
65376;BME280;51976;47.332;9.404;2023-05-14T11:19:02;92388.03;;;11.86;73.79
65376;BME280;51976;47.332;9.404;2023-05-14T11:21:29;92371.91;;;11.81;73.70
65376;BME280;51976;47.332;9.404;2023-05-14T11:23:55;92381.03;;;11.85;73.39
65376;BME280;51976;47.332;9.404;2023-05-14T11:26:22;92386.03;;;11.78;73.94
65376;BME280;51976;47.332;9.404;2023-05-14T11:28:48;92362.78;;;11.50;73.43
65376;BME280;51976;47.332;9.404;2023-05-14T11:31:14;92384.66;;;11.21;75.18
65376;BME280;51976;47.332;9.404;2023-05-14T11:33:39;92387.66;;;10.87;77.38
65376;BME280;51976;47.332;9.404;2023-05-14T11:36:05;92385.69;;;10.93;78.19
65376;BME280;51976;47.332;9.404;2023-05-14T11:38:30;92373.75;;;10.80;77.95
65376;BME280;51976;47.332;9.404;2023-05-14T11:40:57;92390.59;;;11.04;77.58
65376;BME280;51976;47.332;9.404;2023-05-14T11:43:24;92342.34;;;10.89;77.11
65376;BME280;51976;47.332;9.404;2023-05-14T11:45:51;92367.63;;;11.07;76.67
65376;BME280;51976;47.332;9.404;2023-05-14T11:48:17;92377.84;;;11.24;76.44
65376;BME280;51976;47.332;9.404;2023-05-14T11:50:45;92395.03;;;11.28;76.42
65376;BME280;51976;47.332;9.404;2023-05-14T11:53:16;92382.56;;;11.32;76.10
65376;BME280;51976;47.332;9.404;2023-05-14T11:55:42;92393.47;;;11.54;75.35
65376;BME280;51976;47.332;9.404;2023-05-14T11:58:07;92379.69;;;11.42;75.92
65376;BME280;51976;47.332;9.404;2023-05-14T12:00:33;92369.19;;;11.40;76.60
65376;BME280;51976;47.332;9.404;2023-05-14T12:02:58;92390.19;;;11.43;75.31
65376;BME280;51976;47.332;9.404;2023-05-14T12:05:24;92372.16;;;11.11;76.17
65376;BME280;51976;47.332;9.404;2023-05-14T12:07:49;92366.06;;;11.19;76.27
65376;BME280;51976;47.332;9.404;2023-05-14T12:10:14;92381.47;;;11.33;75.60
65376;BME280;51976;47.332;9.404;2023-05-14T12:12:44;92333.56;;;11.25;75.09
65376;BME280;51976;47.332;9.404;2023-05-14T12:15:11;92382.81;;;11.76;74.87
65376;BME280;51976;47.332;9.404;2023-05-14T12:17:37;92358.59;;;11.71;74.19
65376;BME280;51976;47.332;9.404;2023-05-14T12:20:04;92371.53;;;12.02;74.17
65376;BME280;51976;47.332;9.404;2023-05-14T12:22:33;92375.59;;;12.13;73.44
65376;BME280;51976;47.332;9.404;2023-05-14T12:24:58;92361.47;;;12.16;72.20
65376;BME280;51976;47.332;9.404;2023-05-14T12:27:25;92353.59;;;12.06;71.66
65376;BME280;51976;47.332;9.404;2023-05-14T12:29:59;92344.28;;;12.12;72.25
65376;BME280;51976;47.332;9.404;2023-05-14T12:32:25;92333.69;;;12.02;72.39
65376;BME280;51976;47.332;9.404;2023-05-14T12:34:50;92368.91;;;11.83;74.34
65376;BME280;51976;47.332;9.404;2023-05-14T12:37:16;92361.50;;;11.61;76.51
65376;BME280;51976;47.332;9.404;2023-05-14T12:39:42;92359.13;;;11.73;75.97
65376;BME280;51976;47.332;9.404;2023-05-14T12:42:07;92368.31;;;11.45;76.84
65376;BME280;51976;47.332;9.404;2023-05-14T12:44:33;92359.69;;;11.57;76.46
65376;BME280;51976;47.332;9.404;2023-05-14T12:46:58;92368.09;;;11.41;76.30
65376;BME280;51976;47.332;9.404;2023-05-14T12:49:24;92363.28;;;11.38;77.21
65376;BME280;51976;47.332;9.404;2023-05-14T12:51:49;92363.75;;;11.13;77.37
65376;BME280;51976;47.332;9.404;2023-05-14T12:54:14;92365.72;;;10.94;77.33
65376;BME280;51976;47.332;9.404;2023-05-14T12:56:40;92376.19;;;10.95;77.89
65376;BME280;51976;47.332;9.404;2023-05-14T12:59:05;92348.47;;;10.76;77.81
65376;BME280;51976;47.332;9.404;2023-05-14T13:01:31;92368.72;;;11.06;77.18
65376;BME280;51976;47.332;9.404;2023-05-14T13:03:56;92339.22;;;10.82;78.02